Time;durP1;ratioP1;P1;durP2;ratioP2;P2;SDS_P1;SDS_P2;PMS_P1;PMS_P2;Temp;Humidity;BMP_temperature;BMP_pressure;BME280_temperature;BME280_humidity;BME280_pressure;Samples;Min_cycle;Max_cycle;Signal;HPM_P1;HPM_P2
2024/01/31 00:02:01;;;;;;;0.73;0.40;;;6.70;99.90;;;;;;4985647;28;20249;-87
2024/01/31 00:04:27;;;;;;;0.20;0.20;;;6.80;99.90;;;;;;4975630;28;20288;-88
2024/01/31 00:06:53;;;;;;;0.10;0.10;;;6.80;99.90;;;;;;4974048;28;20224;-87
2024/01/31 00:09:18;;;;;;;0.63;0.57;;;6.70;99.90;;;;;;4992351;28;20192;-88
2024/01/31 00:11:44;;;;;;;0.30;0.30;;;6.70;99.90;;;;;;4991464;28;20661;-86
2024/01/31 00:14:12;;;;;;;0.20;0.20;;;6.80;99.90;;;;;;4991140;28;20242;-86
2024/01/31 00:16:38;;;;;;;11.40;0.77;;;6.80;99.90;;;;;;4985049;28;20245;-86
2024/01/31 00:19:04;;;;;;;0.30;0.30;;;6.80;99.90;;;;;;4976506;28;20233;-86
2024/01/31 00:21:30;;;;;;;0.20;0.20;;;6.80;99.90;;;;;;4985050;28;20218;-87
2024/01/31 00:23:59;;;;;;;0.30;0.30;;;6.80;99.90;;;;;;4974790;28;20216;-87
2024/01/31 00:26:25;;;;;;;0.10;0.10;;;6.80;99.90;;;;;;4990195;28;20219;-88
2024/01/31 00:28:51;;;;;;;0.10;0.10;;;6.70;99.90;;;;;;4975319;28;20258;-87
2024/01/31 00:31:17;;;;;;;0.10;0.10;;;6.70;99.90;;;;;;4974892;28;20227;-87
2024/01/31 00:33:43;;;;;;;0.20;0.20;;;6.70;99.90;;;;;;4975930;28;20191;-86
2024/01/31 00:36:09;;;;;;;0.60;0.60;;;6.60;99.90;;;;;;4983850;28;20211;-87
2024/01/31 00:38:35;;;;;;;0.83;0.83;;;6.50;99.90;;;;;;4955437;28;20315;-88
2024/01/31 00:41:00;;;;;;;0.10;0.10;;;6.50;99.90;;;;;;4988831;28;20215;-86
2024/01/31 00:43:26;;;;;;;0.20;0.20;;;6.40;99.90;;;;;;4982838;28;20829;-87
2024/01/31 00:45:52;;;;;;;0.47;0.47;;;6.40;99.90;;;;;;4974686;28;20176;-86
2024/01/31 00:48:18;;;;;;;0.27;0.27;;;6.30;99.90;;;;;;4975518;28;20183;-88
2024/01/31 00:50:44;;;;;;;0.20;0.20;;;6.30;99.90;;;;;;4974071;28;20791;-87
2024/01/31 00:53:09;;;;;;;0.40;0.40;;;6.20;99.90;;;;;;4974246;28;20230;-86
2024/01/31 00:55:35;;;;;;;0.17;0.17;;;6.10;99.90;;;;;;4973972;28;20218;-88
2024/01/31 00:58:01;;;;;;;0.20;0.20;;;6.00;99.90;;;;;;4974659;28;20593;-86
2024/01/31 01:00:27;;;;;;;0.57;0.43;;;6.00;99.90;;;;;;4990633;28;20189;-86
2024/01/31 01:02:54;;;;;;;0.10;0.10;;;5.90;99.90;;;;;;4983325;28;20250;-86
2024/01/31 01:05:22;;;;;;;0.20;0.20;;;5.90;99.90;;;;;;4984084;28;20290;-87
2024/01/31 01:07:48;;;;;;;12.93;1.23;;;5.80;99.90;;;;;;4981157;28;20211;-86
2024/01/31 01:10:15;;;;;;;1.30;0.53;;;5.90;99.90;;;;;;4974355;28;20219;-87
2024/01/31 01:12:42;;;;;;;0.20;0.20;;;5.90;99.90;;;;;;4990697;28;20195;-86
2024/01/31 01:15:09;;;;;;;0.20;0.20;;;5.90;99.90;;;;;;4966650;28;20241;-86
2024/01/31 01:17:36;;;;;;;0.50;0.50;;;5.90;99.90;;;;;;4989861;28;20737;-86
2024/01/31 01:20:01;;;;;;;0.40;0.40;;;5.90;99.90;;;;;;4990473;28;20239;-86
2024/01/31 01:22:27;;;;;;;1.10;1.03;;;6.00;99.90;;;;;;4984519;28;20231;-86
2024/01/31 01:24:53;;;;;;;0.20;0.20;;;6.00;99.90;;;;;;4974432;28;20582;-88
2024/01/31 01:27:19;;;;;;;0.30;0.30;;;6.00;99.90;;;;;;4975094;28;20187;-86
2024/01/31 01:29:45;;;;;;;0.20;0.20;;;6.00;99.90;;;;;;4974457;28;20229;-87
2024/01/31 01:32:10;;;;;;;0.93;0.90;;;6.10;99.90;;;;;;4981493;28;20706;-86
2024/01/31 01:34:40;;;;;;;0.30;0.30;;;6.10;99.90;;;;;;4990801;28;20219;-86
2024/01/31 01:37:06;;;;;;;0.80;0.80;;;6.10;99.90;;;;;;4983322;28;20656;-87
2024/01/31 01:39:32;;;;;;;0.20;0.20;;;6.20;99.90;;;;;;4983487;28;20281;-88
2024/01/31 01:41:58;;;;;;;0.17;0.17;;;6.20;99.90;;;;;;4975107;28;20214;-86
2024/01/31 01:44:23;;;;;;;0.30;0.30;;;6.20;99.90;;;;;;4974050;28;20223;-86
2024/01/31 01:46:50;;;;;;;0.17;0.17;;;6.20;99.90;;;;;;4975260;28;20229;-87
2024/01/31 01:49:16;;;;;;;0.20;0.20;;;6.20;99.90;;;;;;4967746;28;20695;-87
2024/01/31 01:51:44;;;;;;;0.20;0.20;;;6.20;99.90;;;;;;4974410;28;20219;-87
2024/01/31 01:54:12;;;;;;;0.30;0.30;;;6.30;99.90;;;;;;4984869;28;20592;-87
2024/01/31 01:56:46;;;;;;;2.30;1.30;;;6.30;99.90;;;;;;4989499;28;20222;-87
2024/01/31 01:59:13;;;;;;;0.27;0.27;;;6.30;99.90;;;;;;4989737;28;20257;-87
2024/01/31 02:01:41;;;;;;;0.47;0.47;;;6.40;99.90;;;;;;4982728;28;20563;-87
2024/01/31 02:04:08;;;;;;;0.43;0.43;;;6.50;99.90;;;;;;4992037;28;20322;-87
2024/01/31 02:06:34;;;;;;;0.30;0.30;;;6.50;99.90;;;;;;4990396;28;20192;-86
2024/01/31 02:09:02;;;;;;;0.30;0.30;;;6.50;99.90;;;;;;4990598;28;20211;-87
2024/01/31 02:11:30;;;;;;;0.30;0.30;;;6.50;99.90;;;;;;4990688;28;20235;-87
2024/01/31 02:13:57;;;;;;;0.20;0.20;;;6.50;99.90;;;;;;4974038;28;20607;-87
2024/01/31 02:16:23;;;;;;;0.20;0.20;;;6.50;99.90;;;;;;5000574;28;20215;-86
2024/01/31 02:18:49;;;;;;;0.30;0.30;;;6.60;99.90;;;;;;4974066;28;20659;-87
2024/01/31 02:21:16;;;;;;;0.20;0.20;;;6.60;99.90;;;;;;4973744;28;20215;-87
2024/01/31 02:23:42;;;;;;;2.67;1.43;;;6.70;99.90;;;;;;4983733;28;20771;-86
2024/01/31 02:26:08;;;;;;;0.20;0.20;;;6.70;99.90;;;;;;4993677;28;20302;-87
2024/01/31 02:28:34;;;;;;;0.20;0.20;;;6.70;99.90;;;;;;4977340;28;20239;-87
2024/01/31 02:30:59;;;;;;;0.40;0.40;;;6.70;99.90;;;;;;4986330;28;20183;-87
2024/01/31 02:33:25;;;;;;;0.10;0.10;;;6.80;99.90;;;;;;5001928;28;20187;-87
2024/01/31 02:35:51;;;;;;;0.10;0.10;;;6.80;99.90;;;;;;4986606;28;20711;-86
2024/01/31 02:38:17;;;;;;;0.30;0.30;;;6.80;99.90;;;;;;4977086;28;20249;-86
2024/01/31 02:40:43;;;;;;;0.30;0.30;;;6.80;99.90;;;;;;4993663;28;20215;-86
2024/01/31 02:43:08;;;;;;;0.37;0.37;;;6.80;99.90;;;;;;4977447;28;20191;-86
2024/01/31 02:45:35;;;;;;;0.40;0.40;;;6.70;99.90;;;;;;4985217;28;20246;-87
2024/01/31 02:48:02;;;;;;;0.30;0.30;;;6.70;99.90;;;;;;4977321;28;20203;-86
2024/01/31 02:50:30;;;;;;;7.57;0.50;;;6.70;99.90;;;;;;4987157;28;20265;-87
2024/01/31 02:52:56;;;;;;;0.20;0.20;;;6.70;99.90;;;;;;4992574;28;20231;-87
2024/01/31 02:55:22;;;;;;;0.20;0.20;;;6.70;99.90;;;;;;4993303;28;20225;-86
2024/01/31 02:57:48;;;;;;;0.20;0.20;;;6.60;99.90;;;;;;4991180;28;20226;-88
2024/01/31 03:00:14;;;;;;;0.13;0.13;;;6.70;99.90;;;;;;4977365;28;20647;-87
2024/01/31 03:02:43;;;;;;;0.63;0.60;;;6.70;99.90;;;;;;4977609;28;20212;-86
2024/01/31 03:05:12;;;;;;;0.20;0.20;;;6.60;99.90;;;;;;4977006;28;20975;-86
2024/01/31 03:07:39;;;;;;;0.73;0.60;;;6.60;99.90;;;;;;4992586;28;20219;-87
2024/01/31 03:10:06;;;;;;;0.60;0.50;;;6.60;99.90;;;;;;4985441;28;20242;-88
2024/01/31 03:12:31;;;;;;;0.20;0.20;;;6.50;99.90;;;;;;4977727;28;20728;-86
2024/01/31 03:14:57;;;;;;;0.43;0.43;;;6.40;99.90;;;;;;4976044;28;20263;-86
2024/01/31 03:17:23;;;;;;;0.50;0.50;;;6.40;99.90;;;;;;4977102;28;20246;-87
2024/01/31 03:19:55;;;;;;;0.47;0.47;;;6.30;99.90;;;;;;4976102;28;20210;-90
2024/01/31 03:22:21;;;;;;;2.00;1.90;;;6.30;99.90;;;;;;4960918;28;20273;-87
2024/01/31 03:24:47;;;;;;;0.27;0.27;;;6.20;99.90;;;;;;4975999;28;20191;-87
2024/01/31 03:27:13;;;;;;;0.53;0.53;;;6.20;99.90;;;;;;4976034;28;20219;-88
2024/01/31 03:29:39;;;;;;;0.40;0.30;;;6.10;99.90;;;;;;4984682;28;20239;-87
2024/01/31 03:32:05;;;;;;;0.70;0.70;;;6.00;99.90;;;;;;4983671;28;20262;-88
2024/01/31 03:34:31;;;;;;;0.60;0.60;;;5.90;99.90;;;;;;4977151;28;20239;-87
2024/01/31 03:36:57;;;;;;;0.67;0.67;;;6.00;99.90;;;;;;4983643;28;20258;-87
2024/01/31 03:39:22;;;;;;;0.30;0.30;;;5.90;99.90;;;;;;4976738;28;20183;-86
2024/01/31 03:41:49;;;;;;;0.20;0.20;;;5.80;99.90;;;;;;4976768;28;20242;-87
2024/01/31 03:44:15;;;;;;;0.63;0.63;;;5.70;99.90;;;;;;4974994;28;20758;-87
2024/01/31 03:46:41;;;;;;;0.20;0.20;;;5.80;99.90;;;;;;4977445;28;20691;-87
2024/01/31 03:49:07;;;;;;;0.30;0.30;;;5.70;99.90;;;;;;4975267;28;20196;-87
2024/01/31 03:51:33;;;;;;;0.20;0.20;;;5.60;99.90;;;;;;4993237;28;20211;-87
2024/01/31 03:53:59;;;;;;;0.40;0.40;;;5.70;99.90;;;;;;4975467;28;20215;-86
2024/01/31 03:56:25;;;;;;;0.30;0.30;;;5.50;99.90;;;;;;4976748;28;20234;-87
2024/01/31 03:58:50;;;;;;;0.73;0.73;;;5.50;99.90;;;;;;4976607;28;20215;-89
2024/01/31 04:01:17;;;;;;;0.30;0.30;;;5.40;99.90;;;;;;4976519;28;20588;-87
2024/01/31 04:03:45;;;;;;;0.10;0.10;;;5.50;99.90;;;;;;4978070;28;20187;-87
2024/01/31 04:06:12;;;;;;;0.70;0.70;;;5.30;99.90;;;;;;4975903;28;20225;-88
2024/01/31 04:08:38;;;;;;;0.20;0.20;;;5.40;99.90;;;;;;4991349;28;20223;-87
2024/01/31 04:11:04;;;;;;;0.67;0.63;;;5.40;99.90;;;;;;4991079;28;20249;-86
2024/01/31 04:13:31;;;;;;;0.20;0.20;;;5.30;99.90;;;;;;4981885;28;20350;-87
2024/01/31 04:15:58;;;;;;;0.40;0.40;;;5.30;99.90;;;;;;5009283;28;20621;-87
2024/01/31 04:18:24;;;;;;;0.30;0.30;;;5.30;99.90;;;;;;4992687;28;20203;-86
2024/01/31 04:20:50;;;;;;;0.20;0.20;;;5.40;99.90;;;;;;4975816;28;20207;-88
2024/01/31 04:23:16;;;;;;;0.30;0.30;;;5.40;99.90;;;;;;4962125;28;20235;-87
2024/01/31 04:25:42;;;;;;;1.07;0.83;;;5.20;99.90;;;;;;4983776;28;20931;-87
2024/01/31 04:28:08;;;;;;;0.30;0.30;;;5.20;99.90;;;;;;4984714;28;20200;-89
2024/01/31 04:30:34;;;;;;;0.30;0.30;;;5.30;99.90;;;;;;4976485;28;20567;-87
2024/01/31 04:33:02;;;;;;;7.33;0.37;;;5.30;99.90;;;;;;4990519;28;20226;-88
2024/01/31 04:35:29;;;;;;;0.33;0.33;;;5.10;99.90;;;;;;4992161;28;20706;-87
2024/01/31 04:37:55;;;;;;;0.37;0.37;;;5.20;99.90;;;;;;4971931;28;20228;-87
2024/01/31 04:40:21;;;;;;;0.83;0.30;;;5.30;99.90;;;;;;4955991;28;20211;-86
2024/01/31 04:42:47;;;;;;;0.87;0.87;;;5.30;99.90;;;;;;4972490;28;20202;-88
2024/01/31 04:45:14;;;;;;;0.30;0.30;;;5.20;99.90;;;;;;4971877;28;20303;-86
2024/01/31 04:47:43;;;;;;;0.10;0.10;;;5.00;99.90;;;;;;4971470;28;20230;-87
2024/01/31 04:50:09;;;;;;;0.20;0.20;;;5.20;99.90;;;;;;4971681;28;20846;-87
2024/01/31 04:52:36;;;;;;;0.20;0.20;;;5.10;99.90;;;;;;4989042;28;20370;-87
2024/01/31 04:55:02;;;;;;;0.30;0.30;;;4.80;99.90;;;;;;4979330;28;20196;-86
2024/01/31 04:57:28;;;;;;;3.03;2.93;;;5.00;99.90;;;;;;4956370;28;20200;-87
2024/01/31 04:59:54;;;;;;;0.20;0.20;;;5.00;99.90;;;;;;4972376;28;20216;-86
2024/01/31 05:02:22;;;;;;;0.80;0.50;;;4.80;99.90;;;;;;4970795;28;20299;-86
2024/01/31 05:04:48;;;;;;;0.30;0.30;;;4.90;99.90;;;;;;4955731;28;20342;-87
2024/01/31 05:07:14;;;;;;;1.50;1.13;;;4.60;99.90;;;;;;4971455;28;20669;-87
2024/01/31 05:09:39;;;;;;;0.23;0.23;;;4.50;99.90;;;;;;4972516;28;20192;-87
2024/01/31 05:12:05;;;;;;;0.30;0.30;;;4.80;99.90;;;;;;4972349;28;20223;-87
2024/01/31 05:14:31;;;;;;;3.00;0.90;;;4.40;99.90;;;;;;4972814;28;20219;-87
2024/01/31 05:16:58;;;;;;;0.20;0.20;;;4.70;99.90;;;;;;4972779;28;20298;-87
2024/01/31 05:19:24;;;;;;;0.30;0.30;;;4.70;99.90;;;;;;4987211;28;20231;-86
2024/01/31 05:21:52;;;;;;;1.07;0.47;;;4.40;99.90;;;;;;4967461;28;20184;-87
2024/01/31 05:24:18;;;;;;;0.30;0.30;;;4.30;99.90;;;;;;4971322;28;20224;-86
2024/01/31 05:26:46;;;;;;;0.20;0.20;;;4.20;99.90;;;;;;4987791;28;20211;-88
2024/01/31 05:29:12;;;;;;;1.93;0.83;;;4.30;99.90;;;;;;4986592;28;20219;-86
2024/01/31 05:31:38;;;;;;;0.20;0.20;;;4.40;99.90;;;;;;4988645;28;20607;-87
2024/01/31 05:34:04;;;;;;;0.30;0.30;;;4.30;99.90;;;;;;4980395;28;20190;-87
2024/01/31 05:36:30;;;;;;;0.30;0.30;;;4.30;99.90;;;;;;4978983;28;20267;-87
2024/01/31 05:38:55;;;;;;;1.90;0.93;;;4.10;99.90;;;;;;4939088;28;20212;-87
2024/01/31 05:41:21;;;;;;;0.63;0.63;;;4.30;99.90;;;;;;4955222;28;20755;-87
2024/01/31 05:43:47;;;;;;;0.23;0.23;;;4.00;99.90;;;;;;4938467;28;20222;-88
2024/01/31 05:46:15;;;;;;;0.33;0.33;;;4.10;99.90;;;;;;4971530;28;20236;-87
2024/01/31 05:48:42;;;;;;;0.20;0.20;;;3.90;99.90;;;;;;4979903;28;20234;-87
2024/01/31 05:51:08;;;;;;;0.27;0.27;;;4.00;99.90;;;;;;4993908;28;20218;-87
2024/01/31 05:53:34;;;;;;;0.30;0.30;;;3.80;99.90;;;;;;4962049;28;20207;-87
2024/01/31 05:56:00;;;;;;;0.30;0.30;;;3.80;99.90;;;;;;4962998;28;20220;-87
2024/01/31 05:58:26;;;;;;;0.20;0.20;;;3.70;99.90;;;;;;4950816;28;20684;-87
2024/01/31 06:00:52;;;;;;;1.60;1.47;;;4.00;99.90;;;;;;4968381;28;20675;-88
2024/01/31 06:03:18;;;;;;;0.40;0.40;;;3.80;99.90;;;;;;4962635;28;20211;-87
2024/01/31 06:05:44;;;;;;;0.20;0.20;;;4.10;99.90;;;;;;4994099;28;20701;-87
2024/01/31 06:08:10;;;;;;;0.53;0.33;;;4.00;99.90;;;;;;4978200;28;20219;-87
2024/01/31 06:10:35;;;;;;;0.27;0.27;;;4.20;99.90;;;;;;4977683;28;20211;-88
2024/01/31 06:13:02;;;;;;;1.13;0.57;;;4.30;99.90;;;;;;4978184;28;20231;-87
2024/01/31 06:15:28;;;;;;;0.20;0.20;;;4.10;99.90;;;;;;4978777;28;20654;-86
2024/01/31 06:17:54;;;;;;;0.27;0.27;;;4.20;99.90;;;;;;4977890;28;20211;-86
2024/01/31 06:20:21;;;;;;;0.37;0.37;;;4.20;99.90;;;;;;4977644;28;20302;-87
2024/01/31 06:22:46;;;;;;;0.80;0.80;;;4.50;99.90;;;;;;4978091;28;20294;-87
2024/01/31 06:25:12;;;;;;;0.80;0.80;;;4.30;99.90;;;;;;4977153;28;20285;-87
2024/01/31 06:27:38;;;;;;;22.03;1.43;;;4.50;99.90;;;;;;4978948;28;20250;-87
2024/01/31 06:30:04;;;;;;;0.40;0.40;;;4.40;99.90;;;;;;4977793;28;20254;-87
2024/01/31 06:32:37;;;;;;;0.20;0.20;;;4.50;99.90;;;;;;4977659;28;20215;-87
2024/01/31 06:35:03;;;;;;;1.43;0.53;;;4.60;99.90;;;;;;4988465;28;20219;-87
2024/01/31 06:37:29;;;;;;;0.40;0.40;;;4.60;99.90;;;;;;4984700;28;20223;-87
2024/01/31 06:39:55;;;;;;;0.53;0.53;;;4.70;99.90;;;;;;4993951;28;20199;-88
2024/01/31 06:42:21;;;;;;;0.30;0.30;;;4.60;99.90;;;;;;4978120;28;20675;-87
2024/01/31 06:44:47;;;;;;;0.23;0.23;;;4.70;99.90;;;;;;4977341;28;20226;-86
2024/01/31 06:47:12;;;;;;;0.30;0.30;;;4.70;99.90;;;;;;4993151;28;20222;-87
2024/01/31 06:49:38;;;;;;;0.40;0.40;;;4.60;99.90;;;;;;4978049;28;20230;-89
2024/01/31 06:52:06;;;;;;;0.50;0.50;;;4.70;99.90;;;;;;4976752;28;20222;-87
2024/01/31 06:54:32;;;;;;;0.40;0.40;;;4.70;99.90;;;;;;4978684;28;20194;-86
2024/01/31 06:56:58;;;;;;;9.20;0.87;;;4.70;99.90;;;;;;4986040;28;20211;-88
2024/01/31 06:59:24;;;;;;;0.67;0.53;;;5.00;99.90;;;;;;4977392;28;20215;-85
2024/01/31 07:01:49;;;;;;;0.73;0.73;;;4.90;99.90;;;;;;4977984;28;20609;-86
2024/01/31 07:04:15;;;;;;;0.20;0.20;;;4.90;99.90;;;;;;4994409;28;20710;-87
2024/01/31 07:06:41;;;;;;;0.40;0.40;;;5.00;99.90;;;;;;4994095;28;20188;-86
2024/01/31 07:09:07;;;;;;;2.03;1.83;;;5.10;99.90;;;;;;4974530;28;20824;-88
2024/01/31 07:11:33;;;;;;;0.23;0.23;;;5.20;99.90;;;;;;4975383;28;20776;-87
2024/01/31 07:13:59;;;;;;;0.20;0.20;;;5.10;99.90;;;;;;4976549;28;20250;-88
2024/01/31 07:16:24;;;;;;;1.83;1.17;;;5.10;99.90;;;;;;4975995;28;20262;-87
2024/01/31 07:18:50;;;;;;;4.53;0.70;;;5.20;99.90;;;;;;4979221;28;20192;-87
2024/01/31 07:21:28;;;;;;;0.30;0.30;;;5.10;99.90;;;;;;4976249;28;20361;-88
2024/01/31 07:23:54;;;;;;;1.30;1.20;;;5.20;99.90;;;;;;4987468;28;20222;-85
2024/01/31 07:26:24;;;;;;;0.90;0.90;;;5.20;99.90;;;;;;4976845;28;21386;-87
2024/01/31 07:28:51;;;;;;;0.57;0.57;;;5.30;99.90;;;;;;4991434;28;20289;-86
2024/01/31 07:31:16;;;;;;;1.13;1.00;;;5.30;99.90;;;;;;4992443;28;20281;-89
2024/01/31 07:33:42;;;;;;;0.70;0.70;;;5.50;99.90;;;;;;4992107;28;21171;-86
2024/01/31 07:36:08;;;;;;;0.60;0.50;;;5.50;99.90;;;;;;4972508;28;20253;-86
2024/01/31 07:38:34;;;;;;;0.63;0.63;;;5.40;99.90;;;;;;4973566;28;20220;-87
2024/01/31 07:41:00;;;;;;;0.30;0.30;;;5.40;99.90;;;;;;4956832;28;20262;-87
2024/01/31 07:43:26;;;;;;;1.27;1.10;;;5.40;99.90;;;;;;4972837;28;20239;-86
2024/01/31 07:45:53;;;;;;;0.30;0.30;;;5.50;99.90;;;;;;4973146;28;20191;-88
2024/01/31 07:48:19;;;;;;;2.00;1.33;;;5.60;99.90;;;;;;4973727;28;20206;-86
2024/01/31 07:50:45;;;;;;;0.93;0.93;;;5.60;99.90;;;;;;4973529;28;20216;-88
2024/01/31 07:53:11;;;;;;;1.33;1.23;;;5.70;99.90;;;;;;4972937;28;20224;-88
2024/01/31 07:55:37;;;;;;;2.93;1.40;;;5.70;99.90;;;;;;4973374;28;20354;-86
2024/01/31 07:58:03;;;;;;;1.67;0.83;;;5.70;99.90;;;;;;4972722;28;20200;-86
2024/01/31 08:00:29;;;;;;;1.10;0.97;;;5.70;99.90;;;;;;4973374;28;20246;-86
2024/01/31 08:02:55;;;;;;;2.97;2.50;;;5.90;99.90;;;;;;4955997;28;20223;-86
2024/01/31 08:05:20;;;;;;;1.60;1.50;;;5.80;99.90;;;;;;4972133;28;20217;-86
2024/01/31 08:07:46;;;;;;;1.40;1.37;;;5.90;99.90;;;;;;4988854;28;20672;-86
2024/01/31 08:10:13;;;;;;;0.47;0.47;;;5.90;99.90;;;;;;4972434;28;20311;-87
2024/01/31 08:12:46;;;;;;;0.90;0.90;;;5.80;99.90;;;;;;4988440;28;20227;-86
2024/01/31 08:15:12;;;;;;;2.23;0.73;;;5.90;99.90;;;;;;4972533;28;20219;-86
2024/01/31 08:17:38;;;;;;;1.50;1.40;;;5.90;99.90;;;;;;4972187;28;20750;-86
2024/01/31 08:20:06;;;;;;;2.10;1.93;;;6.00;99.90;;;;;;4956142;28;20211;-86
2024/01/31 08:22:35;;;;;;;5.43;1.70;;;6.00;99.90;;;;;;4971171;28;20218;-87
2024/01/31 08:25:01;;;;;;;1.17;1.17;;;6.00;99.90;;;;;;4989160;28;20180;-86
2024/01/31 08:27:27;;;;;;;1.50;1.37;;;6.10;99.90;;;;;;4971394;28;20216;-86
2024/01/31 08:29:53;;;;;;;1.03;0.93;;;6.10;99.90;;;;;;4972423;28;20258;-86
2024/01/31 08:32:19;;;;;;;1.63;1.33;;;6.20;99.90;;;;;;4971870;28;20242;-86
2024/01/31 08:34:47;;;;;;;1.53;1.37;;;6.20;99.90;;;;;;4947702;28;20216;-86
2024/01/31 08:37:17;;;;;;;2.87;2.67;;;6.30;99.90;;;;;;4990881;28;20227;-85
2024/01/31 08:39:42;;;;;;;1.33;1.23;;;6.20;99.90;;;;;;4985953;28;20202;-86
2024/01/31 08:42:09;;;;;;;1.00;1.00;;;6.40;99.90;;;;;;4974615;28;20696;-86
2024/01/31 08:44:35;;;;;;;2.00;1.80;;;6.40;99.90;;;;;;4991246;28;20580;-85
2024/01/31 08:47:00;;;;;;;1.00;0.80;;;6.40;99.90;;;;;;4974917;28;20588;-85
2024/01/31 08:49:26;;;;;;;0.70;0.70;;;6.40;99.90;;;;;;4975061;28;20261;-85
2024/01/31 08:51:55;;;;;;;1.60;1.50;;;6.40;99.90;;;;;;4985178;28;20602;-85
2024/01/31 08:54:21;;;;;;;0.83;0.83;;;6.50;99.90;;;;;;4983991;28;20691;-87
2024/01/31 08:56:47;;;;;;;0.57;0.57;;;6.50;99.90;;;;;;4974846;28;20214;-86
2024/01/31 08:59:12;;;;;;;2.40;2.20;;;6.70;99.90;;;;;;4991570;28;20219;-86
2024/01/31 09:01:45;;;;;;;2.20;2.10;;;6.80;99.90;;;;;;4974910;28;20226;-87
2024/01/31 09:04:15;;;;;;;1.90;1.80;;;6.90;99.90;;;;;;4974803;28;20191;-85
2024/01/31 09:06:41;;;;;;;4.50;2.73;;;6.90;99.90;;;;;;4977722;28;20274;-84
2024/01/31 09:09:07;;;;;;;1.20;1.20;;;7.00;99.90;;;;;;4986703;28;20949;-85
2024/01/31 09:11:33;;;;;;;2.37;2.17;;;7.00;99.90;;;;;;4974108;28;20737;-84
2024/01/31 09:13:58;;;;;;;3.43;2.27;;;7.10;99.90;;;;;;4985276;28;20215;-85
2024/01/31 09:16:24;;;;;;;3.23;2.40;;;7.10;99.90;;;;;;4974222;28;20243;-85
2024/01/31 09:18:50;;;;;;;1.63;1.53;;;7.20;99.90;;;;;;4967225;28;20258;-86
2024/01/31 09:21:26;;;;;;;3.43;2.53;;;7.20;99.90;;;;;;4984173;28;20218;-85
2024/01/31 09:23:53;;;;;;;2.07;1.97;;;7.30;99.90;;;;;;4990354;28;20222;-86
2024/01/31 09:26:19;;;;;;;2.57;2.37;;;7.30;99.90;;;;;;4974331;28;20219;-89
2024/01/31 09:28:45;;;;;;;1.60;1.50;;;7.30;99.90;;;;;;4974497;28;20273;-87
2024/01/31 09:31:18;;;;;;;3.47;1.97;;;7.30;99.90;;;;;;4974795;28;20198;-87
2024/01/31 09:33:44;;;;;;;2.57;2.33;;;7.30;99.90;;;;;;4990966;28;20278;-86
2024/01/31 09:36:09;;;;;;;1.43;1.33;;;7.20;99.90;;;;;;4977991;28;20305;-85
2024/01/31 09:38:35;;;;;;;2.47;2.27;;;7.20;99.90;;;;;;4987036;28;20235;-86
2024/01/31 09:41:01;;;;;;;1.33;1.23;;;7.20;99.90;;;;;;4957901;28;20256;-86
2024/01/31 09:43:27;;;;;;;2.50;2.30;;;7.20;99.90;;;;;;4978286;28;20222;-88
2024/01/31 09:45:55;;;;;;;3.27;2.70;;;7.10;99.90;;;;;;4978111;28;20589;-86
2024/01/31 09:48:21;;;;;;;2.10;1.70;;;7.20;99.90;;;;;;4971621;28;20187;-85
2024/01/31 09:50:47;;;;;;;1.73;1.40;;;7.30;99.90;;;;;;4977700;28;20785;-85
2024/01/31 09:53:14;;;;;;;2.40;2.20;;;7.40;99.90;;;;;;4978971;28;20219;-86
2024/01/31 09:55:43;;;;;;;1.17;1.13;;;7.40;99.90;;;;;;4978296;28;20242;-86
2024/01/31 09:58:09;;;;;;;1.83;1.70;;;7.40;99.90;;;;;;4993619;28;20199;-86
2024/01/31 10:00:36;;;;;;;1.40;1.30;;;7.40;99.90;;;;;;5004250;28;20205;-85
2024/01/31 10:03:01;;;;;;;1.60;1.50;;;7.40;99.90;;;;;;4977783;28;20211;-86
2024/01/31 10:05:27;;;;;;;2.67;2.47;;;7.50;99.90;;;;;;4978145;28;20219;-87
2024/01/31 10:08:04;;;;;;;2.10;1.90;;;7.60;99.90;;;;;;4977525;28;20214;-88
2024/01/31 10:10:30;;;;;;;2.90;1.33;;;7.60;99.90;;;;;;5011500;28;20301;-89
2024/01/31 10:12:56;;;;;;;1.80;1.40;;;7.60;99.90;;;;;;4994525;28;20196;-86
2024/01/31 10:15:22;;;;;;;6.77;1.70;;;7.60;99.90;;;;;;4986853;28;20270;-84
2024/01/31 10:17:48;;;;;;;3.63;2.63;;;7.70;99.90;;;;;;4953678;28;20349;-87
2024/01/31 10:20:14;;;;;;;1.50;1.40;;;7.80;99.90;;;;;;4978260;28;20215;-88
2024/01/31 10:22:45;;;;;;;3.40;1.33;;;7.80;99.90;;;;;;4991204;28;20219;-88
2024/01/31 10:25:15;;;;;;;1.90;1.83;;;7.90;99.90;;;;;;4979460;28;20172;-84
2024/01/31 10:27:42;;;;;;;2.50;2.17;;;7.90;99.90;;;;;;4995319;28;20179;-87
2024/01/31 10:30:08;;;;;;;2.80;2.17;;;7.90;99.90;;;;;;4985230;28;20266;-87
2024/01/31 10:32:35;;;;;;;1.77;1.67;;;7.90;99.90;;;;;;4983648;28;20285;-91
2024/01/31 10:35:03;;;;;;;1.40;1.13;;;7.90;99.90;;;;;;4992029;28;20230;-86
2024/01/31 10:37:30;;;;;;;2.07;1.87;;;7.90;99.90;;;;;;4993404;28;20227;-88
2024/01/31 10:39:59;;;;;;;1.53;0.90;;;7.90;99.90;;;;;;4993900;28;20183;-85
2024/01/31 10:42:26;;;;;;;2.47;2.27;;;7.80;99.90;;;;;;4979328;28;20262;-86
2024/01/31 10:44:53;;;;;;;2.93;2.07;;;7.80;99.90;;;;;;4985430;28;20238;-86
2024/01/31 10:47:19;;;;;;;2.70;1.57;;;7.80;99.90;;;;;;4993166;28;20234;-86
2024/01/31 10:49:45;;;;;;;1.07;1.00;;;7.80;99.90;;;;;;4977232;28;20230;-86
2024/01/31 10:52:14;;;;;;;0.73;0.73;;;7.80;99.90;;;;;;4977849;28;20215;-86
2024/01/31 10:54:46;;;;;;;3.53;3.20;;;7.80;99.90;;;;;;4994431;28;20553;-89
2024/01/31 10:57:13;;;;;;;1.30;1.17;;;7.70;99.90;;;;;;4993419;28;20824;-86
2024/01/31 10:59:39;;;;;;;2.87;2.03;;;7.70;99.90;;;;;;4977052;28;20289;-86
2024/01/31 11:02:15;;;;;;;2.23;2.10;;;7.70;99.90;;;;;;4984528;28;20215;-87
2024/01/31 11:04:45;;;;;;;2.10;1.13;;;7.70;99.90;;;;;;5004456;28;20306;-87
2024/01/31 11:07:18;;;;;;;5.53;2.03;;;7.70;99.90;;;;;;4993466;28;20270;-85
2024/01/31 11:09:48;;;;;;;5.07;1.73;;;7.80;99.90;;;;;;5011461;28;20795;-86
2024/01/31 11:12:15;;;;;;;1.37;1.03;;;7.70;99.90;;;;;;5010715;28;20215;-90
2024/01/31 11:14:43;;;;;;;1.97;1.87;;;7.80;99.90;;;;;;4993542;28;20605;-87
2024/01/31 11:17:11;;;;;;;2.10;1.53;;;7.70;99.90;;;;;;4993438;28;20215;-86
2024/01/31 11:19:40;;;;;;;1.93;1.13;;;7.70;99.90;;;;;;4987327;28;20219;-90
2024/01/31 11:22:07;;;;;;;1.83;1.50;;;7.80;99.90;;;;;;4990175;28;20192;-88
2024/01/31 11:24:34;;;;;;;1.13;1.13;;;7.80;99.90;;;;;;4986835;28;20282;-86
2024/01/31 11:27:02;;;;;;;2.00;1.90;;;7.80;99.90;;;;;;4992848;28;20239;-87
2024/01/31 11:29:30;;;;;;;2.10;1.77;;;7.80;99.90;;;;;;4977407;28;20265;-90
2024/01/31 11:31:57;;;;;;;0.80;0.80;;;7.70;99.90;;;;;;4976524;28;20227;-86
2024/01/31 11:34:24;;;;;;;2.03;1.83;;;7.70;99.90;;;;;;4977368;28;20226;-86
2024/01/31 11:36:50;;;;;;;1.47;1.37;;;7.80;99.90;;;;;;4985156;28;20196;-86
2024/01/31 11:39:16;;;;;;;3.20;0.97;;;7.90;99.90;;;;;;4953165;28;20216;-87
2024/01/31 11:41:42;;;;;;;0.93;0.93;;;7.80;99.90;;;;;;5000642;28;20219;-86
2024/01/31 11:44:08;;;;;;;3.10;0.60;;;7.80;99.90;;;;;;4976426;28;20211;-87
2024/01/31 11:46:34;;;;;;;1.93;0.97;;;7.80;99.90;;;;;;4992363;28;20274;-91
2024/01/31 11:49:00;;;;;;;3.70;1.30;;;7.80;99.90;;;;;;4977460;28;20591;-86
2024/01/31 11:51:26;;;;;;;3.17;2.47;;;7.80;99.90;;;;;;4976525;28;20261;-88
2024/01/31 11:53:52;;;;;;;0.90;0.67;;;7.90;99.90;;;;;;4976581;28;20211;-85
2024/01/31 11:56:18;;;;;;;0.80;0.80;;;7.90;99.90;;;;;;4976326;28;20216;-87
2024/01/31 11:58:44;;;;;;;1.00;1.00;;;7.90;99.90;;;;;;4992722;28;20210;-86
2024/01/31 12:01:12;;;;;;;1.67;1.03;;;7.90;99.90;;;;;;4992087;28;20326;-87
2024/01/31 12:03:39;;;;;;;4.67;2.37;;;7.80;99.90;;;;;;4977292;28;20558;-87
2024/01/31 12:06:05;;;;;;;3.20;2.00;;;7.90;99.90;;;;;;4976148;28;20223;-86
2024/01/31 12:08:32;;;;;;;1.23;1.13;;;7.80;99.90;;;;;;4975625;28;20762;-87
2024/01/31 12:10:58;;;;;;;1.30;1.20;;;7.80;99.90;;;;;;4976258;28;20207;-86
2024/01/31 12:13:24;;;;;;;1.50;1.40;;;7.80;99.90;;;;;;4992023;28;20312;-86
2024/01/31 12:15:50;;;;;;;1.57;1.37;;;7.90;99.90;;;;;;5001949;28;20253;-86
2024/01/31 12:18:16;;;;;;;1.43;1.10;;;7.90;99.90;;;;;;4992010;28;20211;-86
2024/01/31 12:20:43;;;;;;;1.30;1.20;;;7.90;99.90;;;;;;4985258;28;20590;-89
2024/01/31 12:23:08;;;;;;;3.47;2.13;;;7.90;99.90;;;;;;4984827;28;20219;-86
2024/01/31 12:25:34;;;;;;;0.20;0.20;;;7.90;99.90;;;;;;4975667;28;20579;-88
2024/01/31 12:28:00;;;;;;;2.33;1.40;;;7.90;99.90;;;;;;4975337;28;20664;-86
2024/01/31 12:30:26;;;;;;;10.57;1.30;;;7.90;99.90;;;;;;4975741;28;20574;-87
2024/01/31 12:32:52;;;;;;;0.67;0.67;;;8.00;99.90;;;;;;4983496;28;20247;-86
2024/01/31 12:35:18;;;;;;;1.50;1.40;;;8.00;99.90;;;;;;4975401;28;20219;-86
2024/01/31 12:37:45;;;;;;;1.87;1.33;;;8.00;99.90;;;;;;4971835;28;20712;-86
2024/01/31 12:40:12;;;;;;;3.47;1.80;;;8.00;99.90;;;;;;4972043;28;20296;-87
2024/01/31 12:42:38;;;;;;;2.10;1.17;;;8.00;99.90;;;;;;4971977;28;20224;-87
2024/01/31 12:45:07;;;;;;;1.97;1.87;;;8.10;99.90;;;;;;4971756;28;20668;-87
2024/01/31 12:47:34;;;;;;;2.60;1.60;;;8.00;99.90;;;;;;4955605;28;20224;-86
2024/01/31 12:49:59;;;;;;;3.30;2.30;;;8.00;99.90;;;;;;4971987;28;20272;-86
2024/01/31 12:52:25;;;;;;;2.50;0.87;;;8.00;99.90;;;;;;4963158;28;20714;-87
2024/01/31 12:54:51;;;;;;;1.83;1.73;;;8.00;99.90;;;;;;4972827;28;20272;-86